Time;durP1;ratioP1;P1;durP2;ratioP2;P2;SDS_P1;SDS_P2;PMS_P1;PMS_P2;Temp;Humidity;BMP_temperature;BMP_pressure;BME280_temperature;BME280_humidity;BME280_pressure;Samples;Min_cycle;Max_cycle;Signal;HPM_P1;HPM_P2
2024/03/22 00:01:44;;;;;;;18.67;16.97;;;9.30;99.90;;;;;;4999112;28;20225;-79
2024/03/22 00:04:11;;;;;;;17.80;16.20;;;9.20;99.90;;;;;;5005197;28;20196;-79
2024/03/22 00:06:36;;;;;;;17.80;16.30;;;9.10;99.90;;;;;;5011794;28;20197;-79
2024/03/22 00:09:05;;;;;;;20.13;18.23;;;9.00;99.90;;;;;;5008870;28;20194;-79
2024/03/22 00:11:30;;;;;;;19.07;17.40;;;8.90;99.90;;;;;;5004995;28;20220;-79
2024/03/22 00:13:57;;;;;;;17.53;15.93;;;8.90;99.90;;;;;;5004165;28;20189;-78
2024/03/22 00:16:23;;;;;;;17.33;15.73;;;8.80;99.90;;;;;;5004954;28;20201;-78
2024/03/22 00:18:50;;;;;;;18.80;16.93;;;8.70;99.90;;;;;;5002596;28;20189;-79
2024/03/22 00:21:16;;;;;;;17.47;15.93;;;8.60;99.90;;;;;;5008770;28;20216;-79
2024/03/22 00:23:43;;;;;;;17.63;15.87;;;8.50;99.90;;;;;;5003689;28;20199;-78
2024/03/22 00:26:10;;;;;;;17.23;15.60;;;8.40;99.90;;;;;;5010145;28;20231;-78
2024/03/22 00:28:37;;;;;;;19.50;17.60;;;8.40;99.90;;;;;;5004631;28;20284;-79
2024/03/22 00:31:03;;;;;;;19.60;17.77;;;8.30;99.90;;;;;;5014674;28;20193;-79
2024/03/22 00:33:30;;;;;;;18.93;17.17;;;8.30;99.90;;;;;;5003976;28;20212;-79
2024/03/22 00:35:56;;;;;;;18.90;17.20;;;8.20;99.90;;;;;;5000561;28;20201;-78
2024/03/22 00:38:23;;;;;;;12.47;11.27;;;8.10;99.90;;;;;;5010666;28;20552;-78
2024/03/22 00:40:48;;;;;;;14.80;13.37;;;8.10;99.90;;;;;;5009190;28;20217;-78
2024/03/22 00:43:17;;;;;;;17.27;15.73;;;8.00;99.90;;;;;;4997343;28;20758;-78
2024/03/22 00:45:42;;;;;;;17.97;16.13;;;8.10;99.90;;;;;;5006589;28;20224;-78
2024/03/22 00:48:09;;;;;;;17.33;15.57;;;8.10;99.90;;;;;;4999754;28;20197;-78
2024/03/22 00:50:35;;;;;;;18.30;16.50;;;8.10;99.90;;;;;;4997746;28;20197;-78
2024/03/22 00:53:03;;;;;;;18.63;16.93;;;8.00;99.90;;;;;;5006509;28;20220;-79
2024/03/22 00:55:29;;;;;;;17.37;15.77;;;8.00;99.90;;;;;;5002837;28;20200;-78
2024/03/22 00:57:56;;;;;;;18.47;16.80;;;8.00;99.90;;;;;;5006280;28;20828;-78
2024/03/22 01:00:23;;;;;;;19.17;16.73;;;7.90;99.90;;;;;;5000741;28;20248;-78
2024/03/22 01:02:51;;;;;;;17.63;15.87;;;7.90;99.90;;;;;;5005930;28;20779;-78
2024/03/22 01:05:16;;;;;;;18.60;16.73;;;7.90;99.90;;;;;;4999483;28;20193;-78
2024/03/22 01:07:44;;;;;;;18.90;17.00;;;7.90;99.90;;;;;;5006339;28;20199;-79
2024/03/22 01:10:10;;;;;;;18.50;16.53;;;7.90;99.90;;;;;;5007152;28;20194;-78
2024/03/22 01:12:37;;;;;;;17.93;16.13;;;8.00;99.90;;;;;;5004267;28;20342;-78
2024/03/22 01:15:05;;;;;;;19.23;17.33;;;8.00;99.90;;;;;;5005112;28;20189;-78
2024/03/22 01:17:33;;;;;;;17.77;16.07;;;8.00;99.90;;;;;;4999382;28;20203;-78
2024/03/22 01:19:58;;;;;;;17.13;15.60;;;8.00;99.90;;;;;;5004487;28;20690;-78
2024/03/22 01:22:25;;;;;;;18.73;16.93;;;8.00;99.90;;;;;;4997620;28;20221;-78
2024/03/22 01:24:51;;;;;;;19.57;17.87;;;8.00;99.90;;;;;;5015435;28;20200;-78
2024/03/22 01:27:18;;;;;;;19.13;17.30;;;8.00;99.90;;;;;;5005026;28;20194;-78
2024/03/22 01:29:44;;;;;;;18.33;16.83;;;8.00;99.90;;;;;;5008891;28;20193;-79
2024/03/22 01:32:11;;;;;;;19.40;17.63;;;8.00;99.90;;;;;;5003669;28;20256;-78
2024/03/22 01:34:38;;;;;;;18.63;17.03;;;8.00;99.90;;;;;;5012555;28;20201;-78
2024/03/22 01:37:05;;;;;;;17.73;16.30;;;8.00;99.90;;;;;;5006393;28;20815;-78
2024/03/22 01:39:30;;;;;;;18.23;16.63;;;8.00;99.90;;;;;;5003812;28;20672;-78
2024/03/22 01:41:57;;;;;;;17.73;16.23;;;8.00;99.90;;;;;;5002830;28;20212;-78
2024/03/22 01:44:27;;;;;;;17.50;16.03;;;8.00;99.90;;;;;;5009292;28;20619;-78
2024/03/22 01:46:54;;;;;;;18.13;16.53;;;8.00;99.90;;;;;;5008460;28;20260;-78
2024/03/22 01:49:21;;;;;;;17.73;16.27;;;8.00;99.90;;;;;;5000162;28;20212;-78
2024/03/22 01:51:49;;;;;;;18.07;16.43;;;8.00;99.90;;;;;;5001572;28;20241;-78
2024/03/22 01:54:16;;;;;;;17.80;16.20;;;8.00;99.90;;;;;;5000532;28;20567;-78
2024/03/22 01:56:43;;;;;;;15.47;14.27;;;8.00;99.90;;;;;;5009198;28;20200;-78
2024/03/22 01:59:09;;;;;;;16.03;14.67;;;7.90;99.90;;;;;;5006398;28;20201;-78
2024/03/22 02:01:37;;;;;;;15.67;14.27;;;7.90;99.90;;;;;;5000442;28;20308;-78
2024/03/22 02:04:02;;;;;;;15.20;14.00;;;7.90;99.90;;;;;;5004925;28;20205;-78
2024/03/22 02:06:29;;;;;;;15.17;13.97;;;7.90;99.90;;;;;;5001083;28;20193;-78
2024/03/22 02:08:57;;;;;;;15.10;13.80;;;7.90;99.90;;;;;;5002347;28;20220;-78
2024/03/22 02:11:25;;;;;;;14.90;13.70;;;7.90;99.90;;;;;;4998537;28;20225;-78
2024/03/22 02:13:50;;;;;;;16.43;14.93;;;7.90;99.90;;;;;;5001533;28;20205;-78
2024/03/22 02:16:17;;;;;;;15.57;14.33;;;7.90;99.90;;;;;;5006182;28;20201;-78
2024/03/22 02:18:44;;;;;;;15.60;14.30;;;7.90;99.90;;;;;;5002322;28;20201;-78
2024/03/22 02:21:11;;;;;;;15.13;13.93;;;7.90;99.90;;;;;;5003684;28;20271;-78
2024/03/22 02:23:39;;;;;;;14.80;13.50;;;7.90;99.90;;;;;;4999042;28;20212;-79
2024/03/22 02:26:07;;;;;;;15.10;13.90;;;7.90;99.90;;;;;;5012263;28;20867;-78
2024/03/22 02:28:34;;;;;;;15.37;13.97;;;7.90;99.90;;;;;;4999445;28;20205;-78
2024/03/22 02:31:00;;;;;;;15.63;14.27;;;7.80;99.90;;;;;;5013117;28;20198;-78
2024/03/22 02:33:26;;;;;;;15.80;14.30;;;7.80;99.90;;;;;;5005185;28;20651;-78
2024/03/22 02:35:53;;;;;;;16.40;14.90;;;7.80;99.90;;;;;;5003751;28;20193;-78
2024/03/22 02:38:19;;;;;;;15.27;13.97;;;7.70;99.90;;;;;;5003317;28;20252;-78
2024/03/22 02:40:48;;;;;;;15.40;14.10;;;7.70;99.90;;;;;;5004366;28;20645;-78
2024/03/22 02:43:14;;;;;;;16.60;15.10;;;7.70;99.90;;;;;;4995182;28;20247;-78
2024/03/22 02:45:41;;;;;;;16.67;15.33;;;7.60;99.90;;;;;;5007370;28;20204;-78
2024/03/22 02:48:08;;;;;;;17.00;15.50;;;7.60;99.90;;;;;;4999977;28;20263;-78
2024/03/22 02:50:34;;;;;;;18.33;16.53;;;7.60;99.90;;;;;;5003415;28;20196;-78
2024/03/22 02:53:01;;;;;;;18.70;17.00;;;7.50;99.90;;;;;;4999085;28;20232;-78
2024/03/22 02:55:27;;;;;;;18.17;16.57;;;7.50;99.90;;;;;;5001263;28;20204;-78
2024/03/22 02:57:57;;;;;;;19.03;17.33;;;7.50;99.90;;;;;;4999631;28;20684;-78
2024/03/22 03:00:23;;;;;;;18.90;17.30;;;7.50;99.90;;;;;;4998492;28;20215;-78
2024/03/22 03:02:50;;;;;;;19.00;17.40;;;7.40;99.90;;;;;;5007583;28;20216;-78
2024/03/22 03:05:16;;;;;;;17.97;16.47;;;7.40;99.90;;;;;;5009213;28;20199;-78
2024/03/22 03:07:43;;;;;;;18.50;17.00;;;7.40;99.90;;;;;;4998069;28;20209;-78
2024/03/22 03:10:09;;;;;;;18.67;17.07;;;7.30;99.90;;;;;;5004224;28;20247;-79
2024/03/22 03:12:35;;;;;;;19.40;17.73;;;7.30;99.90;;;;;;5003988;28;20648;-79
2024/03/22 03:15:03;;;;;;;18.03;16.63;;;7.20;99.90;;;;;;5000899;28;20248;-78
2024/03/22 03:17:30;;;;;;;19.30;17.67;;;7.20;99.90;;;;;;5005820;28;20212;-78
2024/03/22 03:19:56;;;;;;;19.13;17.53;;;7.20;99.90;;;;;;5007685;28;20195;-78
2024/03/22 03:22:23;;;;;;;19.30;17.63;;;7.20;99.90;;;;;;4997254;28;20637;-78
2024/03/22 03:24:48;;;;;;;18.73;17.13;;;7.20;99.90;;;;;;5005265;28;20192;-78
2024/03/22 03:27:15;;;;;;;19.83;18.13;;;7.20;99.90;;;;;;4998970;28;20208;-79
2024/03/22 03:29:41;;;;;;;19.20;17.60;;;7.20;99.90;;;;;;5014985;28;20568;-78
2024/03/22 03:32:09;;;;;;;20.90;19.13;;;7.20;99.90;;;;;;4999036;28;20221;-78
2024/03/22 03:34:35;;;;;;;18.97;17.27;;;7.20;99.90;;;;;;5001875;28;20227;-78
2024/03/22 03:37:03;;;;;;;19.57;17.93;;;7.20;99.90;;;;;;5014885;28;20319;-78
2024/03/22 03:39:29;;;;;;;20.90;19.00;;;7.10;99.90;;;;;;5005504;28;20205;-78
2024/03/22 03:41:56;;;;;;;19.93;18.23;;;7.20;99.90;;;;;;5010570;28;20227;-78
2024/03/22 03:44:22;;;;;;;19.27;17.57;;;7.20;99.90;;;;;;5011888;28;20284;-79
2024/03/22 03:46:48;;;;;;;18.77;17.23;;;7.20;99.90;;;;;;5007894;28;20276;-79
2024/03/22 03:49:16;;;;;;;20.20;18.43;;;7.20;99.90;;;;;;5017964;28;20205;-78
2024/03/22 03:51:42;;;;;;;20.47;18.77;;;7.20;99.90;;;;;;4999274;28;20219;-80
2024/03/22 03:54:08;;;;;;;19.80;18.10;;;7.20;99.90;;;;;;5014037;28;20227;-80
2024/03/22 03:56:35;;;;;;;19.13;17.43;;;7.30;99.90;;;;;;5004591;28;20197;-80
2024/03/22 03:59:01;;;;;;;19.00;17.40;;;7.20;99.90;;;;;;5014107;28;20212;-79
2024/03/22 04:01:28;;;;;;;19.27;17.67;;;7.20;99.90;;;;;;5007022;28;20223;-80
2024/03/22 04:03:53;;;;;;;20.03;18.33;;;7.20;99.90;;;;;;5011224;28;20262;-80
2024/03/22 04:06:22;;;;;;;19.80;18.20;;;7.20;99.90;;;;;;5012653;28;20230;-79
2024/03/22 04:08:48;;;;;;;21.03;19.17;;;7.20;99.90;;;;;;5005005;28;20218;-79
2024/03/22 04:11:14;;;;;;;21.07;19.23;;;7.20;99.90;;;;;;5005373;28;20679;-79
2024/03/22 04:13:41;;;;;;;21.00;19.13;;;7.20;99.90;;;;;;5005264;28;20246;-80
2024/03/22 04:16:07;;;;;;;20.53;18.83;;;7.20;99.90;;;;;;5007752;28;20219;-83
2024/03/22 04:18:34;;;;;;;21.53;19.53;;;7.20;99.90;;;;;;5012315;28;20193;-78
2024/03/22 04:21:00;;;;;;;20.70;18.83;;;7.10;99.90;;;;;;5010002;28;20270;-78
2024/03/22 04:23:28;;;;;;;22.73;20.47;;;7.10;99.90;;;;;;5010146;28;20219;-79
2024/03/22 04:25:55;;;;;;;21.93;19.97;;;7.10;99.90;;;;;;5001024;28;20689;-78
2024/03/22 04:28:22;;;;;;;20.47;18.63;;;7.00;99.90;;;;;;5016776;28;20199;-78
2024/03/22 04:30:58;;;;;;;20.90;19.07;;;7.00;99.90;;;;;;5009669;28;20188;-78
2024/03/22 04:33:25;;;;;;;21.13;19.13;;;6.90;99.90;;;;;;4998235;28;20232;-77
2024/03/22 04:35:51;;;;;;;21.27;19.37;;;6.90;99.90;;;;;;5001231;28;20196;-77
2024/03/22 04:38:18;;;;;;;21.30;19.37;;;6.90;99.90;;;;;;5020698;28;20199;-77
2024/03/22 04:40:46;;;;;;;21.20;19.23;;;6.80;99.90;;;;;;5016586;28;20196;-77
2024/03/22 04:43:12;;;;;;;21.80;19.90;;;6.70;99.90;;;;;;5005160;28;20242;-77
2024/03/22 04:45:39;;;;;;;20.07;18.37;;;6.70;99.90;;;;;;5004045;28;20664;-77
2024/03/22 04:48:05;;;;;;;19.67;18.07;;;6.60;99.90;;;;;;5002691;28;20707;-77
2024/03/22 04:50:32;;;;;;;19.77;17.97;;;6.50;99.90;;;;;;5005351;28;20275;-77
2024/03/22 04:52:58;;;;;;;20.10;18.27;;;6.50;99.90;;;;;;5008107;28;20216;-78
2024/03/22 04:55:24;;;;;;;19.27;17.47;;;6.50;99.90;;;;;;5004025;28;20252;-77
2024/03/22 04:57:53;;;;;;;19.57;17.67;;;6.50;99.90;;;;;;5003978;28;20200;-78
2024/03/22 05:00:19;;;;;;;19.23;17.40;;;6.50;99.90;;;;;;5001814;28;20207;-78
2024/03/22 05:02:46;;;;;;;19.57;17.63;;;6.50;99.90;;;;;;5002349;28;20220;-77
2024/03/22 05:05:12;;;;;;;19.20;17.50;;;6.50;99.90;;;;;;4998632;28;20210;-78
2024/03/22 05:07:39;;;;;;;20.80;18.90;;;6.50;99.90;;;;;;5005450;28;20593;-78
2024/03/22 05:10:05;;;;;;;20.20;18.33;;;6.50;99.90;;;;;;5008705;28;20259;-78
2024/03/22 05:12:32;;;;;;;21.07;18.97;;;6.50;99.90;;;;;;5001590;28;20235;-78
2024/03/22 05:15:00;;;;;;;19.73;17.80;;;6.60;99.90;;;;;;5011958;28;20188;-79
2024/03/22 05:17:26;;;;;;;20.83;18.93;;;6.60;99.90;;;;;;5013710;28;20592;-77
2024/03/22 05:19:52;;;;;;;23.33;19.27;;;6.70;99.90;;;;;;5002505;28;20349;-78
2024/03/22 05:22:22;;;;;;;21.27;19.33;;;6.70;99.90;;;;;;5007840;28;20278;-77
2024/03/22 05:24:47;;;;;;;19.60;17.80;;;6.70;99.90;;;;;;5001023;28;20212;-78
2024/03/22 05:27:14;;;;;;;20.73;18.87;;;6.70;99.90;;;;;;5005148;28;20204;-78
2024/03/22 05:29:40;;;;;;;20.00;18.03;;;6.80;99.90;;;;;;5000220;28;20313;-79
2024/03/22 05:32:08;;;;;;;20.40;18.47;;;6.80;99.90;;;;;;5004406;28;20207;-79
2024/03/22 05:34:35;;;;;;;20.47;18.60;;;6.80;99.90;;;;;;5003145;28;20209;-78
2024/03/22 05:37:02;;;;;;;22.70;20.77;;;6.90;99.90;;;;;;5001632;28;20191;-78
2024/03/22 05:39:28;;;;;;;20.63;18.73;;;6.90;99.90;;;;;;5000363;28;20246;-78
2024/03/22 05:41:55;;;;;;;20.73;18.93;;;7.00;99.90;;;;;;5000658;28;20704;-78
2024/03/22 05:44:21;;;;;;;21.67;19.60;;;7.10;99.90;;;;;;5006413;28;20197;-78
2024/03/22 05:46:48;;;;;;;20.00;18.00;;;7.20;99.90;;;;;;5002215;28;20664;-78
2024/03/22 05:49:15;;;;;;;22.80;20.60;;;7.20;99.90;;;;;;5005056;28;20617;-78
2024/03/22 05:51:42;;;;;;;22.87;20.87;;;7.30;99.90;;;;;;5006960;28;20217;-78
2024/03/22 05:54:08;;;;;;;20.90;19.10;;;7.40;99.90;;;;;;5002638;28;20215;-78
2024/03/22 05:56:35;;;;;;;21.70;19.80;;;7.40;99.90;;;;;;4999398;28;20567;-77
2024/03/22 05:59:01;;;;;;;23.60;21.40;;;7.50;99.90;;;;;;5003493;28;20224;-77
2024/03/22 06:01:28;;;;;;;22.00;20.00;;;7.60;99.90;;;;;;5007148;28;20694;-78
2024/03/22 06:03:54;;;;;;;22.53;20.23;;;7.70;99.90;;;;;;4995308;28;20208;-77
2024/03/22 06:06:25;;;;;;;21.60;19.43;;;7.80;99.90;;;;;;5012380;28;20608;-78
2024/03/22 06:08:52;;;;;;;20.60;18.63;;;7.90;99.90;;;;;;5007991;28;20251;-78
2024/03/22 06:11:19;;;;;;;16.63;15.03;;;8.00;99.90;;;;;;5002279;28;20196;-78
2024/03/22 06:13:45;;;;;;;14.10;12.03;;;8.20;99.90;;;;;;5001756;28;20197;-77
2024/03/22 06:16:12;;;;;;;16.23;14.57;;;8.40;99.90;;;;;;5007353;28;20703;-78
2024/03/22 06:18:38;;;;;;;17.33;15.73;;;8.60;99.90;;;;;;5002031;28;20201;-78
2024/03/22 06:21:05;;;;;;;19.97;18.17;;;8.80;99.90;;;;;;5001593;28;20608;-78
2024/03/22 06:23:33;;;;;;;17.67;16.17;;;9.00;99.90;;;;;;4998924;28;20205;-78
2024/03/22 06:26:00;;;;;;;16.87;14.37;;;9.20;99.90;;;;;;5002077;28;20236;-78
2024/03/22 06:28:27;;;;;;;18.57;16.93;;;9.40;99.90;;;;;;4999195;28;20268;-78
2024/03/22 06:30:54;;;;;;;20.37;18.47;;;9.50;99.90;;;;;;5012950;28;20198;-78
2024/03/22 06:33:20;;;;;;;18.83;17.13;;;9.40;99.90;;;;;;5001797;28;20243;-78
2024/03/22 06:35:47;;;;;;;20.47;18.67;;;9.40;99.90;;;;;;5005104;28;20271;-78
2024/03/22 06:38:13;;;;;;;15.07;13.67;;;9.40;99.90;;;;;;5000928;28;20720;-78
2024/03/22 06:40:41;;;;;;;12.87;11.57;;;9.40;99.90;;;;;;5006603;28;20193;-78
2024/03/22 06:43:08;;;;;;;16.00;12.70;;;9.50;99.90;;;;;;5009454;28;20248;-78
2024/03/22 06:45:35;;;;;;;12.50;10.73;;;9.60;99.90;;;;;;4996794;28;20193;-78
2024/03/22 06:48:01;;;;;;;12.67;10.30;;;9.80;99.90;;;;;;5003856;28;20251;-78
2024/03/22 06:50:28;;;;;;;11.43;9.77;;;10.00;99.90;;;;;;4998018;28;20207;-79
2024/03/22 06:52:54;;;;;;;12.67;10.77;;;10.30;99.90;;;;;;5005792;28;20324;-78
2024/03/22 06:55:21;;;;;;;15.07;13.77;;;10.60;99.90;;;;;;5006470;28;20706;-78
2024/03/22 06:57:50;;;;;;;9.97;8.97;;;10.90;99.90;;;;;;4999550;28;20483;-78
2024/03/22 07:00:18;;;;;;;12.10;9.60;;;11.20;99.90;;;;;;4996500;28;20206;-78
2024/03/22 07:02:44;;;;;;;11.80;10.63;;;11.50;99.90;;;;;;4999128;28;20226;-78
2024/03/22 07:05:12;;;;;;;14.23;13.03;;;11.70;99.90;;;;;;5014976;28;20211;-78
2024/03/22 07:07:38;;;;;;;14.97;13.50;;;11.70;99.90;;;;;;4997637;28;20254;-78
2024/03/22 07:10:06;;;;;;;14.10;13.00;;;11.70;99.90;;;;;;5006785;28;20199;-78
2024/03/22 07:12:32;;;;;;;12.87;11.67;;;11.80;99.90;;;;;;4996320;28;20247;-78
2024/03/22 07:15:00;;;;;;;13.97;12.73;;;12.00;99.90;;;;;;5005963;28;20211;-78
2024/03/22 07:17:26;;;;;;;13.13;12.03;;;12.10;99.90;;;;;;5001811;28;20197;-78
2024/03/22 07:19:53;;;;;;;12.87;11.70;;;12.20;99.90;;;;;;5005695;28;20192;-78
2024/03/22 07:22:19;;;;;;;13.23;12.03;;;12.40;99.90;;;;;;5010021;28;20227;-79
2024/03/22 07:24:47;;;;;;;11.00;8.10;;;;;;;;;;4999392;28;20279;-78
2024/03/22 07:27:13;;;;;;;14.03;12.83;;;12.50;99.90;;;;;;5017725;28;20730;-78
2024/03/22 07:29:40;;;;;;;14.93;13.63;;;12.70;99.90;;;;;;5005885;28;20200;-78
2024/03/22 07:32:07;;;;;;;13.43;12.33;;;12.90;99.90;;;;;;5005518;28;20220;-79
2024/03/22 07:34:34;;;;;;;12.63;11.47;;;13.20;99.90;;;;;;5006743;28;20738;-79
2024/03/22 07:37:00;;;;;;;13.90;12.67;;;13.70;99.90;;;;;;5003647;28;20202;-79
2024/03/22 07:39:27;;;;;;;9.70;8.13;;;14.20;99.90;;;;;;5008168;28;20248;-78
2024/03/22 07:41:53;;;;;;;12.53;9.03;;;14.60;99.90;;;;;;5000296;28;20236;-79
2024/03/22 07:44:20;;;;;;;9.53;7.77;;;14.90;99.90;;;;;;5016427;28;20259;-77
2024/03/22 07:46:46;;;;;;;15.73;14.37;;;15.10;99.90;;;;;;5004572;28;20393;-79
2024/03/22 07:49:14;;;;;;;14.50;13.20;;;15.50;99.90;;;;;;5005403;28;20202;-79
2024/03/22 07:51:40;;;;;;;14.60;13.40;;;15.80;99.90;;;;;;5006388;28;20216;-80
2024/03/22 07:54:07;;;;;;;13.90;12.67;;;16.20;99.90;;;;;;5003086;28;20611;-79
2024/03/22 07:56:33;;;;;;;15.30;13.87;;;16.40;99.90;;;;;;5006259;28;20729;-79
2024/03/22 07:59:00;;;;;;;15.20;13.90;;;16.50;99.90;;;;;;5002183;28;20197;-81
2024/03/22 08:01:26;;;;;;;14.40;13.30;;;16.70;99.90;;;;;;5008384;28;20706;-80
2024/03/22 08:03:53;;;;;;;14.10;13.03;;;16.90;99.90;;;;;;5006595;28;20197;-79
2024/03/22 08:06:20;;;;;;;13.93;12.73;;;17.10;99.90;;;;;;5003796;28;20297;-81
2024/03/22 08:08:47;;;;;;;15.80;14.50;;;17.20;99.90;;;;;;5003248;28;20199;-80
2024/03/22 08:11:13;;;;;;;13.67;12.57;;;17.00;99.90;;;;;;5014986;28;20742;-81
2024/03/22 08:13:40;;;;;;;12.87;11.77;;;17.20;99.90;;;;;;4998599;28;20293;-81
2024/03/22 08:16:06;;;;;;;13.70;12.43;;;17.50;99.90;;;;;;5006959;28;20198;-80
2024/03/22 08:18:33;;;;;;;14.00;12.80;;;17.60;99.90;;;;;;4998505;28;20199;-80
2024/03/22 08:20:59;;;;;;;13.77;12.43;;;17.90;99.90;;;;;;5000537;28;20234;-80
2024/03/22 08:23:30;;;;;;;14.73;13.47;;;17.90;99.90;;;;;;5003725;28;20240;-82
2024/03/22 08:25:57;;;;;;;13.50;12.40;;;18.00;99.90;;;;;;4999325;28;20669;-80
2024/03/22 08:28:24;;;;;;;9.33;6.03;;;18.20;99.90;;;;;;5003298;28;20204;-80
2024/03/22 08:30:50;;;;;;;7.77;6.20;;;18.30;99.90;;;;;;4998420;28;20668;-82
2024/03/22 08:33:17;;;;;;;8.33;6.67;;;18.40;99.90;;;;;;5001034;28;20217;-81
2024/03/22 08:35:42;;;;;;;9.53;6.20;;;18.30;99.90;;;;;;4998450;28;20207;-79
2024/03/22 08:38:10;;;;;;;12.63;11.63;;;18.50;99.90;;;;;;5003711;28;20263;-80
2024/03/22 08:40:38;;;;;;;13.68;12.57;;;18.50;99.90;;;;;;5005795;28;20438;-79
2024/03/22 08:43:07;;;;;;;12.83;11.83;;;18.50;99.90;;;;;;4999595;28;20460;-79
2024/03/22 08:45:33;;;;;;;13.77;12.17;;;18.70;99.90;;;;;;4999924;28;20205;-79
2024/03/22 08:47:59;;;;;;;12.83;11.83;;;18.90;99.90;;;;;;5007968;28;20188;-79
2024/03/22 08:50:26;;;;;;;13.23;12.10;;;18.90;99.90;;;;;;5001526;28;20676;-79
2024/03/22 08:52:52;;;;;;;13.40;12.30;;;19.20;99.90;;;;;;5004259;28;20281;-79
2024/03/22 08:55:18;;;;;;;13.37;12.30;;;19.40;99.90;;;;;;5003105;28;20208;-79
2024/03/22 08:57:47;;;;;;;12.00;10.93;;;19.60;99.90;;;;;;5001277;28;20618;-79
2024/03/22 09:00:13;;;;;;;13.10;12.00;;;19.90;99.90;;;;;;5002610;28;20205;-80
2024/03/22 09:02:40;;;;;;;13.30;12.13;;;20.00;99.90;;;;;;4997746;28;20225;-83
2024/03/22 09:05:08;;;;;;;12.67;11.37;;;20.00;99.90;;;;;;5007980;28;20193;-80
2024/03/22 09:07:35;;;;;;;11.60;10.67;;;20.10;99.90;;;;;;5002847;28;20604;-80
2024/03/22 09:10:01;;;;;;;13.43;12.17;;;20.20;99.90;;;;;;5007161;28;20246;-80
2024/03/22 09:12:27;;;;;;;12.57;11.47;;;20.20;99.90;;;;;;5001931;28;20217;-80
2024/03/22 09:14:55;;;;;;;12.30;11.20;;;20.50;99.90;;;;;;5003486;28;20671;-79
2024/03/22 09:17:21;;;;;;;13.20;12.00;;;20.70;99.90;;;;;;5002402;28;20568;-80
2024/03/22 09:19:48;;;;;;;14.20;13.10;;;20.90;99.90;;;;;;5010690;28;20208;-80
2024/03/22 09:22:14;;;;;;;13.23;12.13;;;21.00;99.90;;;;;;5002743;28;20332;-80
2024/03/22 09:24:41;;;;;;;13.73;12.40;;;21.30;99.90;;;;;;4999850;28;20197;-80
2024/03/22 09:27:10;;;;;;;13.57;12.40;;;21.20;99.90;;;;;;5006933;28;20197;-80
2024/03/22 09:29:37;;;;;;;13.10;12.10;;;21.20;99.90;;;;;;5000824;28;20205;-80
2024/03/22 09:32:04;;;;;;;12.80;11.63;;;21.30;99.90;;;;;;5009888;28;20212;-80
2024/03/22 09:34:31;;;;;;;13.70;12.40;;;21.30;99.90;;;;;;5006610;28;20212;-80
2024/03/22 09:36:57;;;;;;;13.27;12.23;;;21.30;99.90;;;;;;5003197;28;20288;-80
2024/03/22 09:39:24;;;;;;;12.97;11.87;;;21.20;99.90;;;;;;5000607;28;20225;-80
2024/03/22 09:41:51;;;;;;;12.70;11.60;;;21.20;99.90;;;;;;5004325;28;20660;-80
2024/03/22 09:44:20;;;;;;;13.07;11.93;;;21.00;99.90;;;;;;5004109;28;20197;-80
2024/03/22 09:46:47;;;;;;;13.53;12.33;;;20.90;99.90;;;;;;5003340;28;20255;-80
2024/03/22 09:49:15;;;;;;;13.20;12.20;;;20.80;99.90;;;;;;4996998;28;20186;-80
2024/03/22 09:51:43;;;;;;;14.20;12.90;;;20.90;99.90;;;;;;5005298;28;20324;-81
2024/03/22 09:54:10;;;;;;;13.17;11.97;;;21.00;99.90;;;;;;5002867;28;20630;-80
2024/03/22 09:56:39;;;;;;;12.77;11.87;;;21.20;99.90;;;;;;5003596;28;20204;-80
2024/03/22 09:59:06;;;;;;;14.17;12.93;;;21.40;99.90;;;;;;4994837;28;20251;-80
2024/03/22 10:01:34;;;;;;;12.70;11.70;;;21.30;99.90;;;;;;5005594;28;20213;-80
2024/03/22 10:04:01;;;;;;;12.70;11.50;;;21.20;99.90;;;;;;5000630;28;20213;-80
2024/03/22 10:06:29;;;;;;;12.57;11.63;;;21.20;99.90;;;;;;5012028;28;20355;-80
2024/03/22 10:08:59;;;;;;;11.27;10.37;;;21.20;99.90;;;;;;5003844;28;20198;-80
2024/03/22 10:11:26;;;;;;;12.93;11.83;;;21.00;99.90;;;;;;5007639;28;20261;-80
2024/03/22 10:13:54;;;;;;;11.73;10.63;;;20.70;99.90;;;;;;5005317;28;20193;-79
2024/03/22 10:16:20;;;;;;;11.40;10.33;;;20.60;99.90;;;;;;5004750;28;20201;-79
2024/03/22 10:18:48;;;;;;;10.60;9.73;;;20.50;99.90;;;;;;4999516;28;20197;-80
2024/03/22 10:21:18;;;;;;;10.40;9.50;;;20.70;99.90;;;;;;5001050;28;20213;-79
2024/03/22 10:23:48;;;;;;;10.13;9.27;;;20.80;99.90;;;;;;5010116;28;20303;-80
2024/03/22 10:26:14;;;;;;;10.13;9.33;;;21.00;99.90;;;;;;4999895;28;20256;-80
2024/03/22 10:28:46;;;;;;;11.23;10.23;;;21.00;99.90;;;;;;4996188;28;20243;-80
2024/03/22 10:31:12;;;;;;;10.47;9.57;;;20.60;99.90;;;;;;5002264;28;20687;-81
2024/03/22 10:33:41;;;;;;;10.50;9.70;;;20.50;99.90;;;;;;4997433;28;20302;-81
2024/03/22 10:36:07;;;;;;;10.30;9.40;;;20.40;99.90;;;;;;5003295;28;20232;-80
2024/03/22 10:38:37;;;;;;;10.60;9.70;;;20.20;99.90;;;;;;4997869;28;20201;-81
2024/03/22 10:41:04;;;;;;;9.60;8.90;;;20.10;99.90;;;;;;5002844;28;20194;-80
2024/03/22 10:43:32;;;;;;;11.00;10.00;;;19.90;99.90;;;;;;4994066;28;20224;-80
2024/03/22 10:46:01;;;;;;;9.90;9.10;;;19.90;99.90;;;;;;5001194;28;20198;-80
2024/03/22 10:48:34;;;;;;;10.17;9.37;;;19.90;99.90;;;;;;5014550;28;20201;-77
2024/03/22 10:51:02;;;;;;;9.37;8.73;;;19.90;99.90;;;;;;4999339;28;20201;-81
2024/03/22 10:53:32;;;;;;;9.90;9.10;;;20.10;99.90;;;;;;4999741;28;20654;-81
2024/03/22 10:56:01;;;;;;;9.80;9.10;;;20.20;99.90;;;;;;4997790;28;20276;-83
2024/03/22 10:58:29;;;;;;;10.40;9.60;;;20.20;99.90;;;;;;5014804;28;20601;-83
2024/03/22 11:00:56;;;;;;;10.90;9.97;;;20.30;99.90;;;;;;4996821;28;20236;-83
2024/03/22 11:03:24;;;;;;;10.43;9.47;;;20.20;99.90;;;;;;5004711;28;20756;-83
2024/03/22 11:05:53;;;;;;;10.10;9.30;;;20.20;99.90;;;;;;4996274;28;20208;-83
2024/03/22 11:08:25;;;;;;;9.97;9.07;;;20.20;99.90;;;;;;5002519;28;20189;-83
2024/03/22 11:10:51;;;;;;;10.10;9.40;;;20.00;99.90;;;;;;4996479;28;20211;-82
2024/03/22 11:13:18;;;;;;;10.50;9.50;;;20.00;99.90;;;;;;5010698;28;20651;-83
2024/03/22 11:15:47;;;;;;;10.27;9.33;;;20.00;99.90;;;;;;5003917;28;20200;-83
2024/03/22 11:18:15;;;;;;;9.50;8.80;;;20.00;99.90;;;;;;4997463;28;20208;-83
2024/03/22 11:20:41;;;;;;;10.00;9.20;;;20.10;99.90;;;;;;5004547;28;20639;-83
2024/03/22 11:23:09;;;;;;;9.60;8.87;;;20.10;99.90;;;;;;4995887;28;20692;-83
2024/03/22 11:25:36;;;;;;;9.97;9.07;;;20.20;99.90;;;;;;4999528;28;20232;-83
2024/03/22 11:28:03;;;;;;;9.73;8.90;;;20.20;99.90;;;;;;5006211;28;20212;-82
2024/03/22 11:30:30;;;;;;;9.30;8.50;;;20.10;99.90;;;;;;5003850;28;20188;-82
2024/03/22 11:33:00;;;;;;;8.80;8.10;;;20.10;99.90;;;;;;5004136;28;20213;-82
2024/03/22 11:35:27;;;;;;;9.40;8.50;;;20.20;99.90;;;;;;5010609;28;20231;-82
2024/03/22 11:37:58;;;;;;;9.63;8.83;;;20.10;99.90;;;;;;5002318;28;20201;-82
2024/03/22 11:40:26;;;;;;;9.57;8.77;;;20.10;99.90;;;;;;4994308;28;20280;-80
2024/03/22 11:42:55;;;;;;;9.87;8.87;;;20.10;99.90;;;;;;5000935;28;20235;-80
2024/03/22 11:45:23;;;;;;;9.30;8.50;;;20.00;99.90;;;;;;5000358;28;20683;-81
2024/03/22 11:47:50;;;;;;;9.20;8.40;;;20.00;99.90;;;;;;5001347;28;20192;-81
2024/03/22 11:50:18;;;;;;;10.10;9.30;;;19.90;99.90;;;;;;4995535;28;20300;-81
2024/03/22 11:52:46;;;;;;;9.90;9.10;;;19.80;99.90;;;;;;5000710;28;20601;-81
2024/03/22 11:55:15;;;;;;;9.50;8.70;;;19.70;99.90;;;;;;4999783;28;20243;-81
2024/03/22 11:57:41;;;;;;;10.20;9.40;;;19.70;99.90;;;;;;5004381;28;20205;-81
2024/03/22 12:00:09;;;;;;;9.77;8.93;;;19.70;99.90;;;;;;5027389;28;20280;-81
2024/03/22 12:02:38;;;;;;;9.20;8.40;;;19.60;99.90;;;;;;5008696;28;20229;-81
2024/03/22 12:05:06;;;;;;;9.20;8.50;;;19.50;99.90;;;;;;5005517;28;20224;-81
2024/03/22 12:07:34;;;;;;;8.90;8.10;;;19.50;99.90;;;;;;4999241;28;20205;-81
2024/03/22 12:10:01;;;;;;;9.20;8.50;;;19.40;99.90;;;;;;5003023;28;20196;-81
2024/03/22 12:12:27;;;;;;;8.87;8.13;;;19.50;99.90;;;;;;5004510;28;20232;-81
2024/03/22 12:14:54;;;;;;;8.40;7.73;;;19.50;99.90;;;;;;5006223;28;20190;-81
2024/03/22 12:17:19;;;;;;;8.80;8.10;;;19.60;99.90;;;;;;4998120;28;20198;-81
2024/03/22 12:19:47;;;;;;;8.97;8.27;;;19.70;99.90;;;;;;5001244;28;20445;-81
2024/03/22 12:22:13;;;;;;;9.00;8.20;;;19.80;99.90;;;;;;5006342;28;20213;-81
2024/03/22 12:24:42;;;;;;;9.00;8.30;;;19.80;99.90;;;;;;5004382;28;20603;-81
2024/03/22 12:27:07;;;;;;;8.73;8.03;;;19.90;99.90;;;;;;5004487;28;20193;-81
2024/03/22 12:29:35;;;;;;;8.70;8.00;;;19.90;99.90;;;;;;4999325;28;20605;-81
2024/03/22 12:32:03;;;;;;;8.70;7.90;;;19.90;99.90;;;;;;5004535;28;20300;-81
2024/03/22 12:34:30;;;;;;;8.30;7.70;;;20.00;99.90;;;;;;5007367;28;20205;-81